WetterOnline ( https://www.wetteronline.de )

Wetter aktuell Großfischlingen

Aktuelles Wetter: Rheinstetten (116m)

6-stündlich | Neueste Meldungen
Ortszeit Temperatur Wetter
So, 09.05. 8:00 12.1° C wolkig
So, 09.05. 2:00 6.7° C wolkig
Sa, 08.05. 20:00 17.6° C leicht bewölkt
Sa, 08.05. 14:00 16.5° C wolkig
Sa, 08.05. 8:00 5.4° C leicht bewölkt
Sa, 08.05. 2:00 1.6° C wolkenlos
Fr, 07.05. 20:00 12.4° C leicht bewölkt
Fr, 07.05. 14:00 12.0° C leicht bewölkt
Ortszeit Temperatur Wetter
So, 09.05. 13:00 25.6° C leicht bewölkt
So, 09.05. 12:50 25.6° C leicht bewölkt
So, 09.05. 12:40 26.3° C wolkig
So, 09.05. 12:30 25.2° C wolkig
So, 09.05. 12:20 25.2° C wolkig
So, 09.05. 12:10 24.6° C wolkig
So, 09.05. 12:00 23.7° C leicht bewölkt
So, 09.05. 11:30 22.2° C fast wolkenlos
So, 09.05. 11:00 20.6° C wolkenlos
So, 09.05. 10:30 19.4° C wolkenlos
So, 09.05. 10:00 19.1° C fast wolkenlos
So, 09.05. 9:30 17.1° C wolkenlos
Ortszeit Relative Feuchte Sichtweite
So, 09.05. 8:00 75% 40 km
So, 09.05. 2:00 95% 28 km
Sa, 08.05. 20:00 52% 45 km
Sa, 08.05. 14:00 40% >70 km
Sa, 08.05. 8:00 76% 50 km
Sa, 08.05. 2:00 96% 30 km
Fr, 07.05. 20:00 43% >70 km
Fr, 07.05. 14:00 51% >70 km
Ortszeit Relative Feuchte Sichtweite
So, 09.05. 13:00 36% 65 km
So, 09.05. 12:50 36% -
So, 09.05. 12:40 39% -
So, 09.05. 12:30 41% >70 km
So, 09.05. 12:20 41% -
So, 09.05. 12:10 40% -
So, 09.05. 12:00 42% 55 km
So, 09.05. 11:30 47% >70 km
So, 09.05. 11:00 48% 50 km
So, 09.05. 10:30 49% >70 km
So, 09.05. 10:00 51% 55 km
So, 09.05. 9:30 63% 65 km
Ortszeit Niederschlagsmenge Niederschlagsart
So, 09.05. 8:00 0.0 l/m2 in 12 Std. -
So, 09.05. 2:00 0.0 l/m2 in 6 Std. -
Sa, 08.05. 20:00 0.1 l/m2 in 12 Std. Regen
Sa, 08.05. 14:00 0.0 l/m2 in 6 Std. -
Sa, 08.05. 8:00 0.0 l/m2 in 12 Std. -
Sa, 08.05. 2:00 0.0 l/m2 in 6 Std. -
Fr, 07.05. 20:00 0.1 l/m2 in 12 Std. Regen
Fr, 07.05. 14:00 0.1 l/m2 in 6 Std. Regen
Ortszeit Niederschlagsmenge Niederschlagsart
So, 09.05. 13:00 0.0 l/m2 in 1 Std. -
So, 09.05. 12:50 keine Meldung -
So, 09.05. 12:40 keine Meldung -
So, 09.05. 12:30 0.0 l/m2 in 1 Std. -
So, 09.05. 12:20 keine Meldung -
So, 09.05. 12:10 keine Meldung -
So, 09.05. 12:00 0.0 l/m2 in 1 Std. -
So, 09.05. 11:30 0.0 l/m2 in 1 Std. -
So, 09.05. 11:00 0.0 l/m2 in 1 Std. -
So, 09.05. 10:30 0.0 l/m2 in 1 Std. -
So, 09.05. 10:00 0.0 l/m2 in 1 Std. -
So, 09.05. 9:30 0.0 l/m2 in 1 Std. -
Ortszeit Stärke Spitze Richtung
km/h Bft. km/h Grad Sektor
So, 09.05. 8:00 0 0 7 - -
So, 09.05. 2:00 4 1 7 10° N
Sa, 08.05. 20:00 6 1 13 60° NO
Sa, 08.05. 14:00 4 1 14 260° W
Sa, 08.05. 8:00 0 0 7 - -
Sa, 08.05. 2:00 2 1 20 210° SW
Fr, 07.05. 20:00 13 3 39 260° W
Fr, 07.05. 14:00 22 4 52 260° W
Ortszeit Stärke Spitze Richtung
km/h Bft. km/h Grad Sektor
So, 09.05. 13:00 9 2 19 260° W
So, 09.05. 12:50 9 2 - 260° W
So, 09.05. 12:40 6 1 - 280° W
So, 09.05. 12:30 6 1 11 310° NW
So, 09.05. 12:20 6 1 - 310° NW
So, 09.05. 12:10 7 2 - 350° N
So, 09.05. 12:00 6 1 13 360° N
So, 09.05. 11:30 7 2 11 50° NO
So, 09.05. 11:00 6 1 9 320° NW
So, 09.05. 10:30 4 1 7 260° W
So, 09.05. 10:00 4 1 7 140° SO
So, 09.05. 9:30 2 1 6 140° SO
Ortszeit Untergrenze Bedeckung Gattung
total tief tief mittel hoch
So, 09.05. 8:00 7200 m 7/8 0/8 - - -
So, 09.05. 2:00 7500 m 8/8 0/8 - - -
Sa, 08.05. 20:00 9000 m 7/8 0/8 - - -
Sa, 08.05. 14:00 2700 m 8/8 3/8 - - -
Sa, 08.05. 8:00 9000 m 3/8 0/8 - - -
Sa, 08.05. 2:00 - 0/8 0/8 - - -
Fr, 07.05. 20:00 2100 m 4/8 4/8 - - -
Fr, 07.05. 14:00 1020 m 4/8 4/8 - - -
Ortszeit Bedeckungsgrad in Achtel und Wolkenuntergrenze
So, 09.05. 13:00 5(8100m)
So, 09.05. 12:50 5(8100m)
So, 09.05. 12:40 7(8100m)
So, 09.05. 12:30 7(7800m) 8(8400m)
So, 09.05. 12:20 7(7800m) 8(8400m)
So, 09.05. 12:10 7(7800m) 8(8400m)
So, 09.05. 12:00 7(8100m)
So, 09.05. 11:30 1(8400m)
So, 09.05. 11:00 1(8400m)
So, 09.05. 10:30 keine Wolken
So, 09.05. 10:00 2(8100m)
So, 09.05. 9:30 keine Wolken
Ortszeit Luftdruck NN (hPa) Tendenz (hPa in 3 Std.)
So, 09.05. 8:00 1011 - 0,2
So, 09.05. 2:00 1012 - 0,6
Sa, 08.05. 20:00 1013 - 1,7
Sa, 08.05. 14:00 1017 - 2,2
Sa, 08.05. 8:00 1020 - 0,1
Sa, 08.05. 2:00 1021 + 0,2
Fr, 07.05. 20:00 1019 + 1,2
Fr, 07.05. 14:00 1017 + 2,0
Ortszeit Luftdruck NN (hPa) Tendenz (hPa in 3 Std.)
So, 09.05. 13:00 1007 - 2,1
So, 09.05. 12:50 1007 keine Meldung
So, 09.05. 12:40 1007 keine Meldung
So, 09.05. 12:30 1008 - 2,0
So, 09.05. 12:20 1008 keine Meldung
So, 09.05. 12:10 1008 keine Meldung
So, 09.05. 12:00 1008 - 1,7
So, 09.05. 11:30 1009 - 1,5
So, 09.05. 11:00 1009 - 1,1
So, 09.05. 10:30 1009 - 0,9
So, 09.05. 10:00 1010 - 0,3
So, 09.05. 9:30 1010 - 0,3
Ortszeit Schneehöhe (cm)
So, 09.05. 8:00 0
So, 09.05. 2:00 0
Sa, 08.05. 20:00 0
Sa, 08.05. 14:00 0
Sa, 08.05. 8:00 0
Sa, 08.05. 2:00 0
Fr, 07.05. 20:00 0
Fr, 07.05. 14:00 0
Ortszeit Schneehöhe (cm)
So, 09.05. 13:00 0
So, 09.05. 12:50 0
So, 09.05. 12:40 0
So, 09.05. 12:30 0
So, 09.05. 12:20 0
So, 09.05. 12:10 0
So, 09.05. 12:00 0
So, 09.05. 11:30 0
So, 09.05. 11:00 0
So, 09.05. 10:30 0
So, 09.05. 10:00 0
So, 09.05. 9:30 0
Link zu dieser Seite / Seite empfehlen

Das Wetter in ...